createdAt,value
2018-04-02T00:01:43.698Z,7.37
2018-04-02T00:04:12.018Z,7.30
2018-04-02T00:06:40.354Z,7.31
2018-04-02T00:09:08.774Z,7.29
2018-04-02T00:11:37.118Z,7.31
2018-04-02T00:14:05.438Z,7.33
2018-04-02T00:16:33.777Z,7.33
2018-04-02T00:19:02.099Z,7.34
2018-04-02T00:21:30.433Z,7.33
2018-04-02T00:23:58.782Z,7.21
2018-04-02T00:26:27.121Z,7.05
2018-04-02T00:28:55.450Z,7.03
2018-04-02T00:31:23.762Z,7.03
2018-04-02T00:33:52.105Z,7.14
2018-04-02T00:36:20.422Z,7.23
2018-04-02T00:38:48.758Z,7.28
2018-04-02T00:41:17.077Z,7.27
2018-04-02T00:43:45.414Z,7.27
2018-04-02T00:46:14.050Z,7.27
2018-04-02T00:48:42.390Z,7.28
2018-04-02T00:51:10.710Z,7.28
2018-04-02T00:53:39.053Z,7.32
2018-04-02T00:56:07.380Z,7.34
2018-04-02T00:58:35.723Z,7.35
2018-04-02T01:01:04.041Z,7.34
2018-04-02T01:03:32.382Z,7.27
2018-04-02T01:06:00.710Z,7.28
2018-04-02T01:08:29.046Z,7.35
2018-04-02T01:10:57.366Z,7.34
2018-04-02T01:13:25.710Z,7.31
2018-04-02T01:15:54.026Z,7.34
2018-04-02T01:18:22.370Z,7.29
2018-04-02T01:20:50.762Z,7.28
2018-04-02T01:23:19.098Z,7.28
2018-04-02T01:25:47.414Z,7.23
2018-04-02T01:28:15.758Z,7.19
2018-04-02T01:30:44.074Z,7.22
2018-04-02T01:33:12.415Z,7.13
2018-04-02T01:35:40.734Z,7.17
2018-04-02T01:38:09.074Z,7.18
2018-04-02T01:40:37.393Z,7.20
2018-04-02T01:43:05.733Z,7.24
2018-04-02T01:45:34.049Z,7.23
2018-04-02T01:48:02.390Z,7.22
2018-04-02T01:50:30.710Z,7.21
2018-04-02T01:52:59.050Z,7.21
2018-04-02T01:55:27.374Z,7.25
2018-04-02T01:57:55.714Z,7.26
2018-04-02T02:00:24.029Z,7.29
2018-04-02T02:02:52.374Z,7.30
2018-04-02T02:05:20.694Z,7.22
2018-04-02T02:07:49.035Z,7.29
2018-04-02T02:10:17.402Z,7.28
2018-04-02T02:12:45.749Z,7.24
2018-04-02T02:15:14.072Z,7.27
2018-04-02T02:17:42.408Z,7.31
2018-04-02T02:20:10.726Z,7.25
2018-04-02T02:22:39.066Z,7.21
2018-04-02T02:25:07.386Z,7.36
2018-04-02T02:27:35.734Z,7.59
2018-04-02T02:30:04.058Z,7.68
2018-04-02T02:32:32.367Z,7.83
2018-04-02T02:35:00.752Z,7.98
2018-04-02T02:37:29.027Z,8.04
2018-04-02T02:39:57.367Z,8.05
2018-04-02T02:42:25.690Z,8.12
2018-04-02T02:44:54.030Z,8.14
2018-04-02T02:47:22.342Z,8.22
2018-04-02T02:49:50.683Z,8.21
2018-04-02T02:52:19.006Z,8.25
2018-04-02T02:54:47.363Z,8.25
2018-04-02T02:57:15.688Z,8.23
2018-04-02T02:59:44.031Z,8.26
2018-04-02T03:02:12.381Z,8.25
2018-04-02T03:04:40.726Z,8.15
2018-04-02T03:07:09.043Z,8.19
2018-04-02T03:09:37.407Z,8.22
2018-04-02T03:12:05.805Z,8.23
2018-04-02T03:14:34.182Z,8.22
2018-04-02T03:17:02.512Z,8.14
2018-04-02T03:19:30.937Z,8.12
2018-04-02T03:21:59.263Z,8.02
2018-04-02T03:24:27.610Z,8.04
2018-04-02T03:26:55.961Z,8.07
2018-04-02T03:29:24.306Z,8.07
2018-04-02T03:31:52.629Z,8.05
2018-04-02T03:34:20.970Z,8.00
2018-04-02T03:36:49.298Z,7.97
2018-04-02T03:39:17.637Z,7.95
2018-04-02T03:41:45.962Z,7.92
2018-04-02T03:44:14.404Z,7.92
2018-04-02T03:46:42.721Z,7.85
2018-04-02T03:49:11.062Z,7.68
2018-04-02T03:51:39.386Z,7.68
2018-04-02T03:54:07.729Z,7.73
2018-04-02T03:56:36.050Z,7.77
2018-04-02T03:59:04.390Z,7.67
2018-04-02T04:01:32.738Z,7.63
2018-04-02T04:04:01.083Z,7.63
2018-04-02T04:06:29.490Z,7.66
2018-04-02T04:08:57.829Z,7.68
2018-04-02T04:11:26.151Z,7.64
2018-04-02T04:13:54.493Z,7.60
2018-04-02T04:16:22.810Z,7.62
2018-04-02T04:18:51.156Z,7.63
2018-04-02T04:21:19.550Z,7.64
2018-04-02T04:23:47.893Z,7.66
2018-04-02T04:26:16.214Z,7.66
2018-04-02T04:28:44.581Z,7.65
2018-04-02T04:31:12.900Z,7.63
2018-04-02T04:33:41.213Z,7.62
2018-04-02T04:36:09.559Z,7.60
2018-04-02T04:38:37.921Z,7.61
2018-04-02T04:41:06.358Z,7.62
2018-04-02T04:43:34.677Z,7.59
2018-04-02T04:46:03.019Z,7.55
2018-04-02T04:48:31.337Z,7.52
2018-04-02T04:50:59.685Z,7.53
2018-04-02T04:53:28.047Z,7.54
2018-04-02T04:55:56.390Z,7.53
2018-04-02T04:58:24.794Z,7.51
2018-04-02T05:00:53.134Z,7.50
2018-04-02T05:03:21.554Z,7.46
2018-04-02T05:05:49.926Z,7.34
2018-04-02T05:08:18.250Z,7.21
2018-04-02T05:10:46.685Z,7.22
2018-04-02T05:13:15.003Z,7.30
2018-04-02T05:15:43.337Z,7.24
2018-04-02T05:18:11.658Z,7.17
2018-04-02T05:20:40.095Z,7.11
2018-04-02T05:23:08.469Z,7.13
2018-04-02T05:25:36.901Z,7.15
2018-04-02T05:28:05.203Z,7.03
2018-04-02T05:30:33.547Z,6.93
2018-04-02T05:33:01.882Z,6.95
2018-04-02T05:35:30.223Z,7.03
2018-04-02T05:37:58.533Z,7.10
2018-04-02T05:40:26.906Z,7.07
2018-04-02T05:42:55.328Z,7.11
2018-04-02T05:45:23.655Z,7.12
2018-04-02T05:47:52.039Z,7.21
2018-04-02T05:50:20.414Z,7.24
2018-04-02T05:52:48.729Z,7.28
2018-04-02T05:55:17.080Z,7.30
2018-04-02T05:57:45.399Z,7.33
2018-04-02T06:00:13.738Z,7.38
2018-04-02T06:02:42.058Z,7.44
2018-04-02T06:05:10.403Z,7.44
2018-04-02T06:07:38.750Z,7.36
2018-04-02T06:10:07.082Z,7.44
2018-04-02T06:12:35.507Z,7.46
2018-04-02T06:15:03.882Z,7.50
2018-04-02T06:17:32.258Z,7.48
2018-04-02T06:20:00.594Z,7.48
2018-04-02T06:22:28.967Z,7.52
2018-04-02T06:24:57.286Z,7.57
2018-04-02T06:27:25.605Z,7.62
2018-04-02T06:29:54.049Z,7.69
2018-04-02T06:32:22.366Z,7.74
2018-04-02T06:34:50.690Z,7.75
2018-04-02T06:37:19.029Z,7.76
2018-04-02T06:39:47.451Z,7.75
2018-04-02T06:42:15.826Z,7.80
2018-04-02T06:44:44.141Z,7.83
2018-04-02T06:47:12.486Z,7.82
2018-04-02T06:49:40.910Z,7.86
2018-04-02T06:52:09.237Z,7.90
2018-04-02T06:54:37.556Z,7.96
2018-04-02T06:57:05.990Z,7.98
2018-04-02T06:59:34.315Z,8.01
2018-04-02T07:02:02.654Z,8.05
2018-04-02T07:04:31.033Z,8.11
2018-04-02T07:06:59.326Z,8.08
2018-04-02T07:09:27.654Z,8.14
2018-04-02T07:11:56.050Z,8.20
2018-04-02T07:14:24.321Z,8.31
2018-04-02T07:16:52.662Z,8.32
2018-04-02T07:19:20.982Z,8.39
2018-04-02T07:21:49.370Z,8.52
2018-04-02T07:24:17.738Z,8.59
2018-04-02T07:26:46.086Z,8.68
2018-04-02T07:29:14.410Z,8.71
2018-04-02T07:31:42.761Z,8.77
2018-04-02T07:34:11.149Z,8.87
2018-04-02T07:36:39.514Z,9.00
2018-04-02T07:39:07.841Z,9.01
2018-04-02T07:41:36.185Z,8.90
2018-04-02T07:44:04.541Z,8.91
2018-04-02T07:46:33.821Z,8.93
2018-04-02T07:49:02.155Z,8.93
2018-04-02T07:51:30.498Z,8.92
2018-04-02T07:53:58.826Z,8.90
2018-04-02T07:56:28.069Z,8.95
2018-04-02T07:58:56.398Z,9.05
2018-04-02T08:01:24.749Z,9.09
2018-04-02T08:03:53.098Z,9.18
2018-04-02T08:06:21.442Z,9.26
2018-04-02T08:08:49.772Z,9.68
2018-04-02T08:11:18.151Z,9.71
2018-04-02T08:13:46.514Z,9.32
2018-04-02T08:16:14.866Z,9.12
2018-04-02T08:18:43.189Z,9.15
2018-04-02T08:21:11.534Z,9.29
2018-04-02T08:23:39.870Z,9.29
2018-04-02T08:26:08.221Z,9.52
2018-04-02T08:28:36.558Z,9.63
2018-04-02T08:31:04.942Z,9.73
2018-04-02T08:33:33.278Z,9.78
2018-04-02T08:36:01.697Z,9.89
2018-04-02T08:38:30.079Z,9.92
2018-04-02T08:40:58.415Z,9.70
2018-04-02T08:43:26.780Z,9.79
2018-04-02T08:45:55.111Z,9.85
2018-04-02T08:48:24.054Z,9.82
2018-04-02T08:50:52.378Z,9.93
2018-04-02T08:53:20.738Z,10.06
2018-04-02T08:55:49.083Z,10.05
2018-04-02T08:58:17.437Z,10.15
2018-04-02T09:00:45.854Z,10.24
2018-04-02T09:03:14.180Z,10.10
2018-04-02T09:05:42.514Z,10.09
2018-04-02T09:08:11.694Z,10.06
2018-04-02T09:10:40.030Z,10.11
2018-04-02T09:13:08.381Z,10.08
2018-04-02T09:15:36.730Z,10.20
2018-04-02T09:18:05.091Z,10.19
2018-04-02T09:20:33.430Z,10.15
2018-04-02T09:23:01.799Z,10.19
2018-04-02T09:25:30.134Z,10.14
2018-04-02T09:27:58.494Z,10.18
2018-04-02T09:30:26.825Z,10.29
2018-04-02T09:32:55.184Z,10.54
2018-04-02T09:35:23.522Z,10.73
2018-04-02T09:37:51.958Z,10.68
2018-04-02T09:40:20.293Z,10.60
2018-04-02T09:42:48.641Z,10.57
2018-04-02T09:45:17.077Z,10.71
2018-04-02T09:47:45.472Z,10.84
2018-04-02T09:50:13.844Z,10.96
2018-04-02T09:52:42.198Z,11.18
2018-04-02T09:55:11.570Z,11.32
2018-04-02T09:57:39.922Z,11.44
2018-04-02T10:00:08.258Z,11.26
2018-04-02T10:02:36.631Z,11.38
2018-04-02T10:05:06.045Z,11.52
2018-04-02T10:07:34.260Z,11.65
2018-04-02T10:10:02.772Z,11.67
2018-04-02T10:12:31.059Z,11.63
2018-04-02T10:14:59.395Z,11.80
2018-04-02T10:17:27.834Z,11.83
2018-04-02T10:19:56.176Z,11.78
2018-04-02T10:22:24.554Z,11.87
2018-04-02T10:24:52.885Z,11.77
2018-04-02T10:27:21.347Z,11.74
2018-04-02T10:29:49.754Z,11.85
2018-04-02T10:32:18.039Z,11.96
2018-04-02T10:34:46.381Z,12.16
2018-04-02T10:37:14.771Z,12.37
2018-04-02T10:39:43.111Z,12.38
2018-04-02T10:42:11.446Z,12.17
2018-04-02T10:44:39.874Z,12.02
2018-04-02T10:47:08.250Z,12.17
2018-04-02T10:49:36.603Z,12.38
2018-04-02T10:52:04.933Z,12.31
2018-04-02T10:54:33.281Z,12.15
2018-04-02T10:57:01.617Z,12.02
2018-04-02T10:59:30.002Z,11.95
2018-04-02T11:01:58.422Z,11.97
2018-04-02T11:04:26.777Z,12.12
2018-04-02T11:06:55.118Z,12.10
2018-04-02T11:09:23.472Z,12.32
2018-04-02T11:11:51.810Z,12.56
2018-04-02T11:14:20.196Z,12.75
2018-04-02T11:16:48.514Z,12.63
2018-04-02T11:19:16.966Z,12.55
2018-04-02T11:21:45.348Z,12.59
2018-04-02T11:24:13.694Z,12.75
2018-04-02T11:26:42.097Z,12.86
2018-04-02T11:29:10.444Z,12.89
2018-04-02T11:31:38.774Z,12.80
2018-04-02T11:34:07.127Z,12.92
2018-04-02T11:36:36.418Z,13.03
2018-04-02T11:39:05.626Z,13.20
2018-04-02T11:41:33.978Z,13.40
2018-04-02T11:44:02.376Z,13.34
2018-04-02T11:46:31.670Z,13.26
2018-04-02T11:49:00.025Z,13.31
2018-04-02T11:51:28.353Z,13.33
2018-04-02T11:53:56.697Z,13.39
2018-04-02T11:56:25.981Z,13.29
2018-04-02T11:58:54.381Z,13.22
2018-04-02T12:01:22.710Z,13.26
2018-04-02T12:03:51.055Z,13.43
2018-04-02T12:06:20.289Z,13.60
2018-04-02T12:08:48.670Z,13.59
2018-04-02T12:11:17.022Z,13.70
2018-04-02T12:13:45.369Z,13.69
2018-04-02T12:16:13.729Z,13.86
2018-04-02T12:18:42.087Z,13.80
2018-04-02T12:21:10.414Z,13.67
2018-04-02T12:23:38.762Z,13.64
2018-04-02T12:26:07.147Z,13.63
2018-04-02T12:28:35.494Z,13.71
2018-04-02T12:31:03.826Z,13.65
2018-04-02T12:33:32.288Z,13.70
2018-04-02T12:36:00.606Z,13.70
2018-04-02T12:38:29.026Z,13.63
2018-04-02T12:40:57.362Z,13.62
2018-04-02T12:43:25.777Z,13.54
2018-04-02T12:45:54.109Z,13.42
2018-04-02T12:48:22.443Z,13.42
2018-04-02T12:50:50.786Z,13.51
2018-04-02T12:53:19.146Z,13.46
2018-04-02T12:55:47.494Z,13.47
2018-04-02T12:58:15.823Z,13.45
2018-04-02T13:00:44.174Z,13.38
2018-04-02T13:03:12.614Z,13.46
2018-04-02T13:05:40.946Z,13.60
2018-04-02T13:08:09.273Z,13.63
2018-04-02T13:10:37.745Z,13.58
2018-04-02T13:13:06.003Z,13.52
2018-04-02T13:15:48.298Z,13.55
2018-04-02T13:18:17.915Z,13.52
2018-04-02T13:20:46.270Z,13.67
2018-04-02T13:23:14.599Z,13.78
2018-04-02T13:25:42.950Z,13.89
2018-04-02T13:28:11.283Z,13.83
2018-04-02T13:30:39.707Z,13.84
2018-04-02T13:33:08.023Z,13.91
2018-04-02T13:35:36.370Z,13.90
2018-04-02T13:38:04.698Z,13.92
2018-04-02T13:40:33.098Z,13.97
2018-04-02T13:43:01.431Z,13.97
2018-04-02T13:45:29.782Z,14.04
2018-04-02T13:47:58.106Z,14.01
2018-04-02T13:50:26.459Z,13.94
2018-04-02T13:52:55.121Z,13.99
2018-04-02T13:55:23.556Z,13.99
2018-04-02T13:57:51.960Z,13.93
2018-04-02T14:00:20.258Z,13.83
2018-04-02T14:02:48.603Z,13.91
2018-04-02T14:05:16.946Z,13.92
2018-04-02T14:07:45.278Z,13.89
2018-04-02T14:10:13.629Z,13.80
2018-04-02T14:12:41.966Z,13.83
2018-04-02T14:15:10.319Z,13.88
2018-04-02T14:17:38.647Z,13.92
2018-04-02T14:20:07.000Z,14.00
2018-04-02T14:22:35.326Z,14.04
2018-04-02T14:25:03.692Z,14.04
2018-04-02T14:27:32.064Z,14.01
2018-04-02T14:30:00.415Z,14.09
2018-04-02T14:32:28.753Z,14.24
2018-04-02T14:34:57.124Z,14.35
2018-04-02T14:37:45.026Z,14.42
2018-04-02T14:40:19.329Z,14.42
2018-04-02T14:45:30.939Z,14.27
2018-04-02T14:48:04.354Z,14.21
2018-04-02T14:50:40.961Z,14.17
2018-04-02T14:53:09.550Z,14.21
2018-04-02T14:55:37.953Z,14.26
2018-04-02T14:58:06.283Z,14.36
2018-04-02T15:00:34.637Z,14.40
2018-04-02T15:03:02.987Z,14.38
2018-04-02T15:05:31.345Z,14.37
2018-04-02T15:07:59.665Z,14.31
2018-04-02T15:10:28.042Z,14.34
2018-04-02T15:12:56.565Z,14.34
2018-04-02T15:15:25.072Z,14.32
2018-04-02T15:17:53.490Z,14.25
2018-04-02T15:20:21.850Z,14.15
2018-04-02T15:22:50.201Z,14.15
2018-04-02T15:25:19.381Z,14.19
2018-04-02T15:27:47.718Z,14.16
2018-04-02T15:30:16.070Z,14.26
2018-04-02T15:32:44.394Z,14.22
2018-04-02T15:35:12.746Z,14.29
2018-04-02T15:37:41.074Z,14.35
2018-04-02T15:40:09.442Z,14.43
2018-04-02T15:42:37.780Z,14.38
2018-04-02T15:45:06.111Z,14.42
2018-04-02T15:47:34.457Z,14.40
2018-04-02T15:50:02.831Z,14.42
2018-04-02T15:52:31.380Z,14.39
2018-04-02T15:54:59.769Z,14.43
2018-04-02T15:57:28.127Z,14.45
2018-04-02T15:59:56.454Z,14.45
2018-04-02T16:02:24.815Z,14.44
2018-04-02T16:04:53.137Z,14.48
2018-04-02T16:07:21.492Z,14.46
2018-04-02T16:09:49.846Z,14.53
2018-04-02T16:12:18.242Z,14.57
2018-04-02T16:14:46.579Z,14.55
2018-04-02T16:17:14.935Z,14.60
2018-04-02T16:19:43.272Z,14.56
2018-04-02T16:22:11.631Z,14.56
2018-04-02T16:24:40.019Z,14.54
2018-04-02T16:27:08.366Z,14.43
2018-04-02T16:29:36.702Z,14.39
2018-04-02T16:32:05.055Z,14.37
2018-04-02T16:34:33.381Z,14.43
2018-04-02T16:37:01.864Z,14.42
2018-04-02T16:39:30.242Z,14.41
2018-04-02T16:41:58.893Z,14.40
2018-04-02T16:44:27.602Z,14.45
2018-04-02T16:46:56.890Z,14.40
2018-04-02T16:49:25.222Z,14.40
2018-04-02T16:51:53.574Z,14.37
2018-04-02T16:54:21.915Z,14.36
2018-04-02T16:56:51.262Z,14.38
2018-04-02T16:59:19.594Z,14.41
2018-04-02T17:01:47.938Z,14.41
2018-04-02T17:04:16.271Z,14.35
2018-04-02T17:06:44.623Z,14.32
2018-04-02T17:09:12.949Z,14.29
2018-04-02T17:11:41.298Z,14.30
2018-04-02T17:14:09.642Z,14.30
2018-04-02T17:16:37.978Z,14.31
2018-04-02T17:19:06.405Z,14.27
2018-04-02T17:21:34.815Z,14.29
2018-04-02T17:24:03.193Z,14.27
2018-04-02T17:26:32.634Z,14.27
2018-04-02T17:29:00.966Z,14.29
2018-04-02T17:31:29.315Z,14.25
2018-04-02T17:33:57.650Z,14.26
2018-04-02T17:36:26.918Z,14.26
2018-04-02T17:38:55.269Z,14.26
2018-04-02T17:41:23.615Z,14.23
2018-04-02T17:43:51.942Z,14.24
2018-04-02T17:46:20.334Z,14.21
2018-04-02T17:48:48.677Z,14.21
2018-04-02T17:51:17.010Z,14.19
2018-04-02T17:53:45.351Z,14.14
2018-04-02T17:56:13.737Z,14.09
2018-04-02T17:58:42.022Z,14.08
2018-04-02T18:01:10.363Z,14.03
2018-04-02T18:03:38.710Z,14.08
2018-04-02T18:06:07.042Z,14.06
2018-04-02T18:08:35.438Z,14.00
2018-04-02T18:11:03.766Z,13.95
2018-04-02T18:13:32.122Z,13.91
2018-04-02T18:16:00.586Z,13.90
2018-04-02T18:18:28.936Z,13.88
2018-04-02T18:20:57.262Z,13.82
2018-04-02T18:23:25.611Z,13.77
2018-04-02T18:25:53.983Z,13.79
2018-04-02T18:28:22.331Z,13.75
2018-04-02T18:30:50.680Z,13.73
2018-04-02T18:33:19.027Z,13.71
2018-04-02T18:35:47.452Z,13.76
2018-04-02T18:38:15.829Z,13.74
2018-04-02T18:40:44.100Z,13.70
2018-04-02T18:43:12.442Z,13.76
2018-04-02T18:45:40.803Z,13.78
2018-04-02T18:48:09.173Z,13.76
2018-04-02T18:50:37.494Z,13.75
2018-04-02T18:53:05.846Z,13.70
2018-04-02T18:55:34.178Z,13.72
2018-04-02T18:58:02.527Z,13.78
2018-04-02T19:00:30.846Z,13.79
2018-04-02T19:02:59.194Z,13.75
2018-04-02T19:05:27.607Z,13.76
2018-04-02T19:07:55.957Z,13.80
2018-04-02T19:10:24.277Z,13.82
2018-04-02T19:12:53.786Z,13.78
2018-04-02T19:15:23.358Z,13.76
2018-04-02T19:17:51.714Z,13.77
2018-04-02T19:20:22.557Z,13.79
2018-04-02T19:22:50.843Z,13.77
2018-04-02T19:25:19.167Z,13.81
2018-04-02T19:27:47.515Z,13.85
2018-04-02T19:30:15.839Z,13.86
2018-04-02T19:32:44.181Z,13.87
2018-04-02T19:35:12.508Z,13.82
2018-04-02T19:37:40.849Z,13.73
2018-04-02T19:40:09.872Z,13.74
2018-04-02T19:42:38.221Z,13.77
2018-04-02T19:45:06.538Z,13.77
2018-04-02T19:47:34.889Z,13.83
2018-04-02T19:50:03.211Z,13.69
2018-04-02T19:52:31.570Z,13.52
2018-04-02T19:54:59.887Z,13.46
2018-04-02T19:57:28.206Z,13.32
2018-04-02T19:59:56.713Z,13.28
2018-04-02T20:02:25.366Z,13.21
2018-04-02T20:04:53.706Z,13.30
2018-04-02T20:07:22.027Z,13.26
2018-04-02T20:09:50.367Z,13.19
2018-04-02T20:12:18.715Z,13.21
2018-04-02T20:14:47.070Z,13.24
2018-04-02T20:17:15.394Z,13.23
2018-04-02T20:19:44.225Z,13.17
2018-04-02T20:22:12.546Z,13.16
2018-04-02T20:24:40.891Z,13.24
2018-04-02T20:27:09.202Z,13.20
2018-04-02T20:29:37.671Z,13.18
2018-04-02T20:32:05.981Z,13.09
2018-04-02T20:34:34.433Z,13.13
2018-04-02T20:37:02.802Z,13.13
2018-04-02T20:39:31.309Z,13.21
2018-04-02T20:41:59.634Z,13.27
2018-04-02T20:44:28.022Z,13.29
2018-04-02T20:46:56.339Z,13.19
2018-04-02T20:49:24.690Z,13.22
2018-04-02T20:51:53.102Z,13.18
2018-04-02T20:54:21.453Z,13.06
2018-04-02T20:56:50.662Z,12.98
2018-04-02T20:59:19.000Z,12.93
2018-04-02T21:01:47.312Z,12.93
2018-04-02T21:04:15.655Z,12.84
2018-04-02T21:06:44.990Z,12.76
2018-04-02T21:09:13.318Z,12.70
2018-04-02T21:11:41.630Z,12.67
2018-04-02T21:14:09.973Z,12.65
2018-04-02T21:16:38.286Z,12.53
2018-04-02T21:19:07.554Z,12.49
2018-04-02T21:21:35.870Z,12.49
2018-04-02T21:24:04.214Z,12.52
2018-04-02T21:26:32.529Z,12.55
2018-04-02T21:29:02.463Z,12.51
2018-04-02T21:31:30.794Z,12.48
2018-04-02T21:33:59.138Z,12.45
2018-04-02T21:36:27.458Z,12.43
2018-04-02T21:38:56.008Z,12.43
2018-04-02T21:41:24.326Z,12.43
2018-04-02T21:43:52.671Z,12.46
2018-04-02T21:46:21.962Z,12.45
2018-04-02T21:48:50.351Z,12.31
2018-04-02T21:51:18.666Z,12.34
2018-04-02T21:53:47.009Z,12.38
2018-04-02T21:56:15.345Z,12.35
2018-04-02T21:58:43.678Z,12.32
2018-04-02T22:01:12.003Z,12.31
2018-04-02T22:03:40.313Z,12.26
2018-04-02T22:09:03.856Z,12.10
2018-04-02T22:11:32.174Z,12.12
2018-04-02T22:14:00.526Z,12.17
2018-04-02T22:16:29.641Z,12.21
2018-04-02T22:18:57.974Z,12.22
2018-04-02T22:21:26.291Z,12.26
2018-04-02T22:23:54.644Z,12.25
2018-04-02T22:26:23.946Z,12.24
2018-04-02T22:28:52.267Z,12.18
2018-04-02T22:31:20.606Z,12.10
2018-04-02T22:33:48.926Z,12.09
2018-04-02T22:36:17.351Z,12.08
2018-04-02T22:38:45.729Z,12.13
2018-04-02T22:41:14.070Z,12.17
2018-04-02T22:43:42.382Z,12.08
2018-04-02T22:46:10.724Z,12.06
2018-04-02T22:48:39.042Z,12.03
2018-04-02T22:51:07.389Z,12.00
2018-04-02T22:53:35.710Z,11.95
2018-04-02T22:56:04.051Z,11.89
2018-04-02T22:58:32.365Z,12.00
2018-04-02T23:01:00.702Z,11.99
2018-04-02T23:03:29.019Z,11.99
2018-04-02T23:05:57.357Z,12.03
2018-04-02T23:08:25.687Z,12.01
2018-04-02T23:10:54.906Z,12.01
2018-04-02T23:13:23.230Z,11.98
2018-04-02T23:15:51.576Z,11.92
2018-04-02T23:18:19.894Z,11.93
2018-04-02T23:20:48.243Z,11.94
2018-04-02T23:23:16.567Z,11.95
2018-04-02T23:25:44.904Z,11.88
2018-04-02T23:28:13.221Z,11.81
2018-04-02T23:30:41.562Z,11.81
2018-04-02T23:33:09.890Z,11.66
2018-04-02T23:35:38.236Z,11.65
2018-04-02T23:38:06.553Z,11.62
2018-04-02T23:40:34.895Z,11.60
2018-04-02T23:43:03.215Z,11.56
2018-04-02T23:45:31.558Z,11.48
2018-04-02T23:47:59.877Z,11.45
2018-04-02T23:50:28.209Z,11.47
2018-04-02T23:52:56.534Z,11.42
2018-04-02T23:55:24.878Z,11.41
2018-04-02T23:57:53.198Z,11.42
